sensor_id;sensor_type;location;lat;lon;timestamp;P1;durP1;ratioP1;P2;durP2;ratioP2
11988;SDS011;6054;50.966;7.094;2023-07-31T00:02:24;5.43;;;3.20;;
11988;SDS011;6054;50.966;7.094;2023-07-31T00:04:51;5.45;;;2.50;;
11988;SDS011;6054;50.966;7.094;2023-07-31T00:07:18;2.83;;;2.50;;
11988;SDS011;6054;50.966;7.094;2023-07-31T00:09:44;4.72;;;2.67;;
11988;SDS011;6054;50.966;7.094;2023-07-31T00:12:11;3.50;;;2.50;;
11988;SDS011;6054;50.966;7.094;2023-07-31T00:14:39;5.53;;;2.42;;
11988;SDS011;6054;50.966;7.094;2023-07-31T00:17:06;4.65;;;2.78;;
11988;SDS011;6054;50.966;7.094;2023-07-31T00:19:33;5.97;;;2.85;;
11988;SDS011;6054;50.966;7.094;2023-07-31T00:21:59;5.00;;;2.88;;
11988;SDS011;6054;50.966;7.094;2023-07-31T00:24:26;3.97;;;2.67;;
11988;SDS011;6054;50.966;7.094;2023-07-31T00:26:53;6.95;;;3.38;;
11988;SDS011;6054;50.966;7.094;2023-07-31T00:29:19;6.03;;;2.30;;
11988;SDS011;6054;50.966;7.094;2023-07-31T00:31:47;6.22;;;2.90;;
11988;SDS011;6054;50.966;7.094;2023-07-31T00:34:14;5.30;;;2.80;;
11988;SDS011;6054;50.966;7.094;2023-07-31T00:36:41;5.88;;;3.13;;
11988;SDS011;6054;50.966;7.094;2023-07-31T00:39:08;7.15;;;2.90;;
11988;SDS011;6054;50.966;7.094;2023-07-31T00:41:34;6.28;;;2.78;;
11988;SDS011;6054;50.966;7.094;2023-07-31T00:44:01;5.68;;;2.88;;
11988;SDS011;6054;50.966;7.094;2023-07-31T00:46:28;4.95;;;2.92;;
11988;SDS011;6054;50.966;7.094;2023-07-31T00:48:56;7.00;;;2.97;;
11988;SDS011;6054;50.966;7.094;2023-07-31T00:51:23;5.60;;;3.05;;
11988;SDS011;6054;50.966;7.094;2023-07-31T00:53:51;6.18;;;2.67;;
11988;SDS011;6054;50.966;7.094;2023-07-31T00:56:20;7.25;;;2.85;;
11988;SDS011;6054;50.966;7.094;2023-07-31T00:58:47;6.70;;;2.88;;
11988;SDS011;6054;50.966;7.094;2023-07-31T01:01:15;4.70;;;3.15;;
11988;SDS011;6054;50.966;7.094;2023-07-31T01:03:41;7.25;;;2.97;;
11988;SDS011;6054;50.966;7.094;2023-07-31T01:06:24;6.15;;;2.53;;
11988;SDS011;6054;50.966;7.094;2023-07-31T01:09:02;5.80;;;2.80;;
11988;SDS011;6054;50.966;7.094;2023-07-31T01:11:31;6.97;;;3.05;;
11988;SDS011;6054;50.966;7.094;2023-07-31T01:14:01;4.15;;;2.47;;
11988;SDS011;6054;50.966;7.094;2023-07-31T01:16:28;4.65;;;2.90;;
11988;SDS011;6054;50.966;7.094;2023-07-31T01:18:55;5.95;;;2.60;;
11988;SDS011;6054;50.966;7.094;2023-07-31T01:21:32;6.40;;;2.85;;
11988;SDS011;6054;50.966;7.094;2023-07-31T01:24:19;7.85;;;2.38;;
11988;SDS011;6054;50.966;7.094;2023-07-31T01:26:51;4.15;;;2.80;;
11988;SDS011;6054;50.966;7.094;2023-07-31T01:29:23;5.22;;;3.25;;
11988;SDS011;6054;50.966;7.094;2023-07-31T01:31:59;4.47;;;2.90;;
11988;SDS011;6054;50.966;7.094;2023-07-31T01:34:28;3.28;;;2.58;;
11988;SDS011;6054;50.966;7.094;2023-07-31T01:36:56;6.03;;;2.50;;
11988;SDS011;6054;50.966;7.094;2023-07-31T01:39:23;5.80;;;2.22;;
11988;SDS011;6054;50.966;7.094;2023-07-31T01:41:51;4.45;;;2.80;;
11988;SDS011;6054;50.966;7.094;2023-07-31T01:44:18;6.47;;;2.58;;
11988;SDS011;6054;50.966;7.094;2023-07-31T01:46:45;12.35;;;2.85;;
11988;SDS011;6054;50.966;7.094;2023-07-31T01:49:12;3.88;;;2.63;;
11988;SDS011;6054;50.966;7.094;2023-07-31T01:51:39;6.80;;;2.58;;
11988;SDS011;6054;50.966;7.094;2023-07-31T01:54:05;5.70;;;2.75;;
11988;SDS011;6054;50.966;7.094;2023-07-31T01:56:32;5.47;;;2.53;;
11988;SDS011;6054;50.966;7.094;2023-07-31T01:59:00;8.15;;;2.95;;
11988;SDS011;6054;50.966;7.094;2023-07-31T02:01:27;5.47;;;2.55;;
11988;SDS011;6054;50.966;7.094;2023-07-31T02:03:54;4.70;;;2.55;;
11988;SDS011;6054;50.966;7.094;2023-07-31T02:06:20;2.65;;;2.30;;
11988;SDS011;6054;50.966;7.094;2023-07-31T02:08:47;4.97;;;2.50;;
11988;SDS011;6054;50.966;7.094;2023-07-31T02:11:14;3.28;;;2.25;;
11988;SDS011;6054;50.966;7.094;2023-07-31T02:13:41;5.68;;;2.80;;
11988;SDS011;6054;50.966;7.094;2023-07-31T02:16:09;4.80;;;2.85;;
11988;SDS011;6054;50.966;7.094;2023-07-31T02:18:35;3.40;;;2.20;;
11988;SDS011;6054;50.966;7.094;2023-07-31T02:21:02;7.25;;;2.80;;
11988;SDS011;6054;50.966;7.094;2023-07-31T02:23:29;4.25;;;2.60;;
11988;SDS011;6054;50.966;7.094;2023-07-31T02:25:56;6.05;;;2.42;;
11988;SDS011;6054;50.966;7.094;2023-07-31T02:28:23;3.90;;;2.28;;
11988;SDS011;6054;50.966;7.094;2023-07-31T02:30:50;5.10;;;2.63;;
11988;SDS011;6054;50.966;7.094;2023-07-31T02:33:18;5.22;;;2.58;;
11988;SDS011;6054;50.966;7.094;2023-07-31T02:35:45;3.35;;;2.28;;
11988;SDS011;6054;50.966;7.094;2023-07-31T02:38:12;4.50;;;2.58;;
11988;SDS011;6054;50.966;7.094;2023-07-31T02:40:39;7.72;;;2.72;;
11988;SDS011;6054;50.966;7.094;2023-07-31T02:43:06;6.25;;;2.70;;
11988;SDS011;6054;50.966;7.094;2023-07-31T02:45:32;6.25;;;2.85;;
11988;SDS011;6054;50.966;7.094;2023-07-31T02:47:59;5.38;;;3.00;;
11988;SDS011;6054;50.966;7.094;2023-07-31T02:50:27;6.93;;;2.67;;
11988;SDS011;6054;50.966;7.094;2023-07-31T02:52:54;5.13;;;2.60;;
11988;SDS011;6054;50.966;7.094;2023-07-31T02:55:21;4.63;;;2.47;;
11988;SDS011;6054;50.966;7.094;2023-07-31T02:57:48;6.32;;;2.90;;
11988;SDS011;6054;50.966;7.094;2023-07-31T03:00:15;6.82;;;2.70;;
11988;SDS011;6054;50.966;7.094;2023-07-31T03:02:41;8.38;;;2.72;;
11988;SDS011;6054;50.966;7.094;2023-07-31T03:05:08;6.32;;;2.90;;
11988;SDS011;6054;50.966;7.094;2023-07-31T03:07:36;5.53;;;3.10;;
11988;SDS011;6054;50.966;7.094;2023-07-31T03:10:03;5.70;;;2.72;;
11988;SDS011;6054;50.966;7.094;2023-07-31T03:12:30;5.32;;;2.70;;
11988;SDS011;6054;50.966;7.094;2023-07-31T03:14:57;7.90;;;3.03;;
11988;SDS011;6054;50.966;7.094;2023-07-31T03:17:24;7.40;;;3.63;;
11988;SDS011;6054;50.966;7.094;2023-07-31T03:19:50;6.88;;;2.92;;
11988;SDS011;6054;50.966;7.094;2023-07-31T03:22:17;5.35;;;2.83;;
11988;SDS011;6054;50.966;7.094;2023-07-31T03:24:45;6.75;;;3.00;;
11988;SDS011;6054;50.966;7.094;2023-07-31T03:27:12;9.57;;;3.72;;
11988;SDS011;6054;50.966;7.094;2023-07-31T03:29:39;8.63;;;3.15;;
11988;SDS011;6054;50.966;7.094;2023-07-31T03:32:06;5.15;;;2.65;;
11988;SDS011;6054;50.966;7.094;2023-07-31T03:34:32;6.95;;;3.03;;
11988;SDS011;6054;50.966;7.094;2023-07-31T03:36:59;5.70;;;2.90;;
11988;SDS011;6054;50.966;7.094;2023-07-31T03:39:26;6.82;;;3.30;;
11988;SDS011;6054;50.966;7.094;2023-07-31T03:41:54;7.68;;;2.95;;
11988;SDS011;6054;50.966;7.094;2023-07-31T03:44:21;11.32;;;2.85;;
11988;SDS011;6054;50.966;7.094;2023-07-31T03:46:47;8.20;;;3.10;;
11988;SDS011;6054;50.966;7.094;2023-07-31T03:49:14;8.80;;;3.55;;
11988;SDS011;6054;50.966;7.094;2023-07-31T03:51:41;6.45;;;2.75;;
11988;SDS011;6054;50.966;7.094;2023-07-31T03:54:08;6.70;;;3.00;;
11988;SDS011;6054;50.966;7.094;2023-07-31T03:56:34;7.75;;;3.40;;
11988;SDS011;6054;50.966;7.094;2023-07-31T03:59:04;7.32;;;3.20;;
11988;SDS011;6054;50.966;7.094;2023-07-31T04:06:34;4.88;;;2.80;;
11988;SDS011;6054;50.966;7.094;2023-07-31T04:09:01;4.38;;;3.05;;
11988;SDS011;6054;50.966;7.094;2023-07-31T04:11:28;5.43;;;3.30;;
11988;SDS011;6054;50.966;7.094;2023-07-31T04:13:55;4.78;;;3.25;;
11988;SDS011;6054;50.966;7.094;2023-07-31T04:16:23;6.75;;;3.53;;
11988;SDS011;6054;50.966;7.094;2023-07-31T04:18:50;6.05;;;3.30;;
11988;SDS011;6054;50.966;7.094;2023-07-31T04:21:17;8.55;;;3.40;;
11988;SDS011;6054;50.966;7.094;2023-07-31T04:23:44;7.30;;;3.25;;
11988;SDS011;6054;50.966;7.094;2023-07-31T04:26:11;7.35;;;2.90;;
11988;SDS011;6054;50.966;7.094;2023-07-31T04:28:37;5.25;;;3.53;;
11988;SDS011;6054;50.966;7.094;2023-07-31T04:31:04;6.03;;;3.13;;
11988;SDS011;6054;50.966;7.094;2023-07-31T04:33:32;8.32;;;3.65;;
11988;SDS011;6054;50.966;7.094;2023-07-31T04:35:59;9.07;;;3.28;;
11988;SDS011;6054;50.966;7.094;2023-07-31T04:38:26;7.00;;;3.03;;
11988;SDS011;6054;50.966;7.094;2023-07-31T04:40:52;6.68;;;3.22;;
11988;SDS011;6054;50.966;7.094;2023-07-31T04:43:19;4.32;;;3.00;;
11988;SDS011;6054;50.966;7.094;2023-07-31T04:45:46;5.35;;;3.15;;
11988;SDS011;6054;50.966;7.094;2023-07-31T04:48:13;4.70;;;3.08;;
11988;SDS011;6054;50.966;7.094;2023-07-31T04:50:41;6.47;;;3.47;;
11988;SDS011;6054;50.966;7.094;2023-07-31T04:53:09;8.00;;;3.33;;
11988;SDS011;6054;50.966;7.094;2023-07-31T04:55:35;4.38;;;3.63;;
11988;SDS011;6054;50.966;7.094;2023-07-31T04:58:02;4.80;;;3.30;;
11988;SDS011;6054;50.966;7.094;2023-07-31T05:00:29;5.60;;;3.25;;
11988;SDS011;6054;50.966;7.094;2023-07-31T05:02:56;4.07;;;3.30;;
11988;SDS011;6054;50.966;7.094;2023-07-31T05:05:22;8.20;;;3.70;;
11988;SDS011;6054;50.966;7.094;2023-07-31T05:07:51;6.28;;;3.58;;
11988;SDS011;6054;50.966;7.094;2023-07-31T05:10:17;6.55;;;3.85;;
11988;SDS011;6054;50.966;7.094;2023-07-31T05:12:44;8.90;;;3.25;;
11988;SDS011;6054;50.966;7.094;2023-07-31T05:15:11;3.70;;;3.10;;
11988;SDS011;6054;50.966;7.094;2023-07-31T05:17:37;5.10;;;3.40;;
11988;SDS011;6054;50.966;7.094;2023-07-31T05:20:05;5.55;;;2.90;;
11988;SDS011;6054;50.966;7.094;2023-07-31T05:22:32;6.75;;;3.38;;
11988;SDS011;6054;50.966;7.094;2023-07-31T05:25:00;5.45;;;3.20;;
11988;SDS011;6054;50.966;7.094;2023-07-31T05:27:27;7.90;;;2.92;;
11988;SDS011;6054;50.966;7.094;2023-07-31T05:29:54;3.72;;;3.05;;
11988;SDS011;6054;50.966;7.094;2023-07-31T05:32:21;6.72;;;3.10;;
11988;SDS011;6054;50.966;7.094;2023-07-31T05:34:50;4.78;;;3.25;;
11988;SDS011;6054;50.966;7.094;2023-07-31T05:37:17;4.07;;;3.00;;
11988;SDS011;6054;50.966;7.094;2023-07-31T05:39:44;4.22;;;3.10;;
11988;SDS011;6054;50.966;7.094;2023-07-31T05:42:12;7.82;;;2.85;;
11988;SDS011;6054;50.966;7.094;2023-07-31T05:44:39;5.32;;;3.03;;
11988;SDS011;6054;50.966;7.094;2023-07-31T05:47:05;3.42;;;2.85;;
11988;SDS011;6054;50.966;7.094;2023-07-31T05:49:32;5.03;;;3.00;;
11988;SDS011;6054;50.966;7.094;2023-07-31T05:51:59;5.78;;;2.85;;
11988;SDS011;6054;50.966;7.094;2023-07-31T05:54:26;4.57;;;2.92;;
11988;SDS011;6054;50.966;7.094;2023-07-31T05:56:52;5.95;;;2.70;;
11988;SDS011;6054;50.966;7.094;2023-07-31T05:59:20;5.80;;;3.30;;
11988;SDS011;6054;50.966;7.094;2023-07-31T06:01:47;8.98;;;3.30;;
11988;SDS011;6054;50.966;7.094;2023-07-31T06:04:14;6.63;;;3.05;;
11988;SDS011;6054;50.966;7.094;2023-07-31T06:06:41;5.78;;;3.28;;
11988;SDS011;6054;50.966;7.094;2023-07-31T06:09:07;3.45;;;3.00;;
11988;SDS011;6054;50.966;7.094;2023-07-31T06:11:34;6.47;;;2.75;;
11988;SDS011;6054;50.966;7.094;2023-07-31T06:14:01;3.45;;;3.08;;
11988;SDS011;6054;50.966;7.094;2023-07-31T06:16:29;4.65;;;3.20;;
11988;SDS011;6054;50.966;7.094;2023-07-31T06:18:56;5.00;;;2.97;;
11988;SDS011;6054;50.966;7.094;2023-07-31T06:21:23;3.10;;;2.80;;
11988;SDS011;6054;50.966;7.094;2023-07-31T06:23:49;4.18;;;2.83;;
11988;SDS011;6054;50.966;7.094;2023-07-31T06:26:16;4.80;;;3.58;;
11988;SDS011;6054;50.966;7.094;2023-07-31T06:28:43;4.00;;;3.50;;
11988;SDS011;6054;50.966;7.094;2023-07-31T06:31:09;6.18;;;3.55;;
11988;SDS011;6054;50.966;7.094;2023-07-31T06:33:38;4.05;;;3.40;;
11988;SDS011;6054;50.966;7.094;2023-07-31T06:36:05;6.97;;;3.45;;
11988;SDS011;6054;50.966;7.094;2023-07-31T06:38:32;6.10;;;3.65;;
11988;SDS011;6054;50.966;7.094;2023-07-31T06:40:59;5.88;;;3.38;;
11988;SDS011;6054;50.966;7.094;2023-07-31T06:43:26;4.30;;;3.22;;
11988;SDS011;6054;50.966;7.094;2023-07-31T06:45:52;4.13;;;3.53;;
11988;SDS011;6054;50.966;7.094;2023-07-31T06:48:19;8.23;;;4.03;;
11988;SDS011;6054;50.966;7.094;2023-07-31T06:50:47;5.55;;;2.92;;
11988;SDS011;6054;50.966;7.094;2023-07-31T06:53:14;3.78;;;3.08;;
11988;SDS011;6054;50.966;7.094;2023-07-31T06:55:41;3.80;;;2.95;;
11988;SDS011;6054;50.966;7.094;2023-07-31T06:58:07;5.72;;;3.10;;
11988;SDS011;6054;50.966;7.094;2023-07-31T07:00:34;5.25;;;3.00;;
11988;SDS011;6054;50.966;7.094;2023-07-31T07:03:01;5.63;;;3.50;;
11988;SDS011;6054;50.966;7.094;2023-07-31T07:05:28;4.88;;;3.60;;
11988;SDS011;6054;50.966;7.094;2023-07-31T07:07:56;6.68;;;3.40;;
11988;SDS011;6054;50.966;7.094;2023-07-31T07:10:22;6.03;;;3.22;;
11988;SDS011;6054;50.966;7.094;2023-07-31T07:12:49;5.22;;;3.17;;
11988;SDS011;6054;50.966;7.094;2023-07-31T07:15:16;5.60;;;3.47;;
11988;SDS011;6054;50.966;7.094;2023-07-31T07:17:43;5.43;;;3.55;;
11988;SDS011;6054;50.966;7.094;2023-07-31T07:20:10;5.20;;;3.55;;
11988;SDS011;6054;50.966;7.094;2023-07-31T07:22:36;6.45;;;3.70;;
11988;SDS011;6054;50.966;7.094;2023-07-31T07:25:05;5.85;;;3.38;;
11988;SDS011;6054;50.966;7.094;2023-07-31T07:27:33;3.65;;;3.00;;
11988;SDS011;6054;50.966;7.094;2023-07-31T07:29:59;8.00;;;3.47;;
11988;SDS011;6054;50.966;7.094;2023-07-31T07:32:26;4.72;;;3.50;;
11988;SDS011;6054;50.966;7.094;2023-07-31T07:34:53;3.60;;;3.25;;
11988;SDS011;6054;50.966;7.094;2023-07-31T07:37:21;4.75;;;3.30;;
11988;SDS011;6054;50.966;7.094;2023-07-31T07:39:48;6.78;;;3.55;;
11988;SDS011;6054;50.966;7.094;2023-07-31T07:42:16;5.63;;;4.05;;
11988;SDS011;6054;50.966;7.094;2023-07-31T07:44:43;4.13;;;3.50;;
11988;SDS011;6054;50.966;7.094;2023-07-31T07:47:09;4.93;;;3.42;;
11988;SDS011;6054;50.966;7.094;2023-07-31T07:49:36;5.05;;;3.25;;
11988;SDS011;6054;50.966;7.094;2023-07-31T07:52:03;6.38;;;3.35;;
11988;SDS011;6054;50.966;7.094;2023-07-31T07:54:30;6.13;;;3.42;;
11988;SDS011;6054;50.966;7.094;2023-07-31T07:56:57;7.72;;;3.55;;
11988;SDS011;6054;50.966;7.094;2023-07-31T07:59:25;6.30;;;3.33;;
11988;SDS011;6054;50.966;7.094;2023-07-31T08:01:52;5.13;;;3.28;;
11988;SDS011;6054;50.966;7.094;2023-07-31T08:04:20;6.68;;;3.30;;
11988;SDS011;6054;50.966;7.094;2023-07-31T08:06:47;5.53;;;3.53;;
11988;SDS011;6054;50.966;7.094;2023-07-31T08:09:14;6.85;;;3.33;;
11988;SDS011;6054;50.966;7.094;2023-07-31T08:11:40;6.28;;;4.00;;
11988;SDS011;6054;50.966;7.094;2023-07-31T08:14:07;7.07;;;4.28;;
11988;SDS011;6054;50.966;7.094;2023-07-31T08:16:35;6.75;;;3.53;;
11988;SDS011;6054;50.966;7.094;2023-07-31T08:19:02;4.18;;;3.53;;
11988;SDS011;6054;50.966;7.094;2023-07-31T08:21:29;4.93;;;3.40;;
11988;SDS011;6054;50.966;7.094;2023-07-31T08:23:55;5.95;;;3.40;;
11988;SDS011;6054;50.966;7.094;2023-07-31T08:26:22;6.45;;;3.45;;
11988;SDS011;6054;50.966;7.094;2023-07-31T08:28:49;5.88;;;3.22;;
11988;SDS011;6054;50.966;7.094;2023-07-31T08:31:16;4.13;;;3.10;;
11988;SDS011;6054;50.966;7.094;2023-07-31T08:33:44;6.25;;;3.33;;
11988;SDS011;6054;50.966;7.094;2023-07-31T08:36:11;7.05;;;3.50;;
11988;SDS011;6054;50.966;7.094;2023-07-31T08:38:38;5.45;;;3.15;;
11988;SDS011;6054;50.966;7.094;2023-07-31T08:41:05;6.63;;;3.50;;
11988;SDS011;6054;50.966;7.094;2023-07-31T08:43:31;5.97;;;3.08;;
11988;SDS011;6054;50.966;7.094;2023-07-31T08:45:59;6.65;;;3.10;;
11988;SDS011;6054;50.966;7.094;2023-07-31T08:48:28;2.85;;;2.65;;
11988;SDS011;6054;50.966;7.094;2023-07-31T08:50:56;5.93;;;3.22;;
11988;SDS011;6054;50.966;7.094;2023-07-31T08:53:23;5.18;;;3.28;;
11988;SDS011;6054;50.966;7.094;2023-07-31T08:55:50;6.30;;;3.70;;
11988;SDS011;6054;50.966;7.094;2023-07-31T08:58:19;6.97;;;3.28;;
11988;SDS011;6054;50.966;7.094;2023-07-31T09:00:47;5.53;;;3.42;;
11988;SDS011;6054;50.966;7.094;2023-07-31T09:03:15;5.13;;;3.65;;
11988;SDS011;6054;50.966;7.094;2023-07-31T09:05:43;5.53;;;3.13;;
11988;SDS011;6054;50.966;7.094;2023-07-31T09:08:13;7.40;;;3.75;;
11988;SDS011;6054;50.966;7.094;2023-07-31T09:10:44;5.75;;;3.20;;
11988;SDS011;6054;50.966;7.094;2023-07-31T09:13:11;6.22;;;3.50;;
11988;SDS011;6054;50.966;7.094;2023-07-31T09:15:39;4.57;;;3.15;;
11988;SDS011;6054;50.966;7.094;2023-07-31T09:18:06;6.28;;;3.22;;
11988;SDS011;6054;50.966;7.094;2023-07-31T09:20:34;7.00;;;3.70;;
11988;SDS011;6054;50.966;7.094;2023-07-31T09:23:06;6.07;;;3.15;;
11988;SDS011;6054;50.966;7.094;2023-07-31T09:25:35;5.25;;;3.53;;
11988;SDS011;6054;50.966;7.094;2023-07-31T09:28:03;5.40;;;3.03;;
11988;SDS011;6054;50.966;7.094;2023-07-31T09:30:32;5.90;;;3.13;;
11988;SDS011;6054;50.966;7.094;2023-07-31T09:33:11;5.32;;;3.03;;
11988;SDS011;6054;50.966;7.094;2023-07-31T09:35:38;4.85;;;2.67;;
11988;SDS011;6054;50.966;7.094;2023-07-31T09:38:06;6.68;;;2.70;;
11988;SDS011;6054;50.966;7.094;2023-07-31T09:40:36;6.47;;;2.63;;
11988;SDS011;6054;50.966;7.094;2023-07-31T09:43:05;4.15;;;2.50;;
11988;SDS011;6054;50.966;7.094;2023-07-31T09:45:33;5.38;;;2.50;;
11988;SDS011;6054;50.966;7.094;2023-07-31T09:48:01;2.92;;;2.45;;
11988;SDS011;6054;50.966;7.094;2023-07-31T09:50:29;4.32;;;2.35;;
11988;SDS011;6054;50.966;7.094;2023-07-31T09:52:55;3.50;;;2.47;;
11988;SDS011;6054;50.966;7.094;2023-07-31T09:55:23;6.22;;;2.70;;
11988;SDS011;6054;50.966;7.094;2023-07-31T09:57:52;3.85;;;2.80;;
11988;SDS011;6054;50.966;7.094;2023-07-31T10:00:21;5.32;;;2.63;;
11988;SDS011;6054;50.966;7.094;2023-07-31T10:26:04;6.68;;;3.22;;
11988;SDS011;6054;50.966;7.094;2023-07-31T10:28:33;5.35;;;3.03;;
11988;SDS011;6054;50.966;7.094;2023-07-31T10:31:02;5.60;;;3.22;;
11988;SDS011;6054;50.966;7.094;2023-07-31T10:33:30;4.32;;;2.60;;
11988;SDS011;6054;50.966;7.094;2023-07-31T10:36:11;5.75;;;3.13;;
11988;SDS011;6054;50.966;7.094;2023-07-31T10:38:39;5.40;;;2.83;;
11988;SDS011;6054;50.966;7.094;2023-07-31T10:41:09;4.72;;;3.05;;
11988;SDS011;6054;50.966;7.094;2023-07-31T10:43:36;5.68;;;2.90;;
11988;SDS011;6054;50.966;7.094;2023-07-31T10:46:06;3.78;;;2.42;;
11988;SDS011;6054;50.966;7.094;2023-07-31T10:48:34;3.47;;;2.72;;
11988;SDS011;6054;50.966;7.094;2023-07-31T10:51:02;3.20;;;2.70;;
11988;SDS011;6054;50.966;7.094;2023-07-31T10:53:34;5.75;;;3.25;;
11988;SDS011;6054;50.966;7.094;2023-07-31T10:56:02;3.53;;;2.90;;
11988;SDS011;6054;50.966;7.094;2023-07-31T10:58:31;7.15;;;3.28;;
11988;SDS011;6054;50.966;7.094;2023-07-31T11:01:00;5.30;;;3.10;;
11988;SDS011;6054;50.966;7.094;2023-07-31T11:03:40;5.13;;;2.78;;
11988;SDS011;6054;50.966;7.094;2023-07-31T11:06:07;3.35;;;3.05;;
11988;SDS011;6054;50.966;7.094;2023-07-31T11:08:35;3.95;;;2.72;;
11988;SDS011;6054;50.966;7.094;2023-07-31T11:11:07;6.30;;;2.90;;
11988;SDS011;6054;50.966;7.094;2023-07-31T11:13:41;4.07;;;3.30;;
11988;SDS011;6054;50.966;7.094;2023-07-31T11:16:09;5.72;;;3.40;;
11988;SDS011;6054;50.966;7.094;2023-07-31T11:18:38;2.72;;;2.47;;
11988;SDS011;6054;50.966;7.094;2023-07-31T11:21:06;2.50;;;1.67;;
11988;SDS011;6054;50.966;7.094;2023-07-31T11:23:33;5.22;;;1.95;;
11988;SDS011;6054;50.966;7.094;2023-07-31T11:26:02;3.25;;;1.83;;
11988;SDS011;6054;50.966;7.094;2023-07-31T11:28:32;2.78;;;2.00;;
11988;SDS011;6054;50.966;7.094;2023-07-31T11:31:01;2.25;;;1.58;;
11988;SDS011;6054;50.966;7.094;2023-07-31T11:33:28;2.58;;;1.55;;
11988;SDS011;6054;50.966;7.094;2023-07-31T11:35:55;2.50;;;1.52;;
11988;SDS011;6054;50.966;7.094;2023-07-31T11:38:23;1.50;;;1.40;;
11988;SDS011;6054;50.966;7.094;2023-07-31T11:40:51;6.55;;;1.30;;
11988;SDS011;6054;50.966;7.094;2023-07-31T11:43:18;2.00;;;1.40;;
11988;SDS011;6054;50.966;7.094;2023-07-31T11:45:46;1.50;;;1.30;;
11988;SDS011;6054;50.966;7.094;2023-07-31T11:48:23;1.15;;;1.10;;
11988;SDS011;6054;50.966;7.094;2023-07-31T11:50:52;1.65;;;1.20;;
11988;SDS011;6054;50.966;7.094;2023-07-31T11:53:22;1.20;;;1.10;;
11988;SDS011;6054;50.966;7.094;2023-07-31T11:55:53;1.40;;;1.20;;
11988;SDS011;6054;50.966;7.094;2023-07-31T11:58:21;2.70;;;2.10;;
11988;SDS011;6054;50.966;7.094;2023-07-31T12:00:48;1.63;;;1.00;;
11988;SDS011;6054;50.966;7.094;2023-07-31T12:03:15;1.48;;;0.88;;
11988;SDS011;6054;50.966;7.094;2023-07-31T12:05:43;1.58;;;1.17;;
11988;SDS011;6054;50.966;7.094;2023-07-31T12:08:13;0.73;;;0.70;;
11988;SDS011;6054;50.966;7.094;2023-07-31T12:10:41;0.93;;;0.90;;
11988;SDS011;6054;50.966;7.094;2023-07-31T12:13:09;0.93;;;0.93;;
11988;SDS011;6054;50.966;7.094;2023-07-31T12:15:39;2.00;;;0.80;;
11988;SDS011;6054;50.966;7.094;2023-07-31T12:18:08;1.48;;;0.95;;
11988;SDS011;6054;50.966;7.094;2023-07-31T12:20:39;1.30;;;0.73;;
11988;SDS011;6054;50.966;7.094;2023-07-31T12:23:13;1.00;;;0.93;;
11988;SDS011;6054;50.966;7.094;2023-07-31T12:25:41;1.17;;;0.80;;
11988;SDS011;6054;50.966;7.094;2023-07-31T12:28:07;3.03;;;1.02;;
11988;SDS011;6054;50.966;7.094;2023-07-31T12:30:37;1.08;;;0.90;;
11988;SDS011;6054;50.966;7.094;2023-07-31T12:33:05;1.38;;;0.90;;
11988;SDS011;6054;50.966;7.094;2023-07-31T12:35:36;0.90;;;0.90;;
11988;SDS011;6054;50.966;7.094;2023-07-31T12:38:04;1.85;;;0.95;;
11988;SDS011;6054;50.966;7.094;2023-07-31T12:40:32;7.97;;;0.90;;
11988;SDS011;6054;50.966;7.094;2023-07-31T12:43:01;1.67;;;0.90;;
11988;SDS011;6054;50.966;7.094;2023-07-31T12:45:28;0.80;;;0.80;;
11988;SDS011;6054;50.966;7.094;2023-07-31T12:47:56;1.98;;;1.15;;
11988;SDS011;6054;50.966;7.094;2023-07-31T12:50:22;0.82;;;0.82;;
11988;SDS011;6054;50.966;7.094;2023-07-31T12:52:50;1.10;;;1.00;;
11988;SDS011;6054;50.966;7.094;2023-07-31T12:55:17;1.25;;;1.13;;
11988;SDS011;6054;50.966;7.094;2023-07-31T12:57:45;1.33;;;1.23;;
11988;SDS011;6054;50.966;7.094;2023-07-31T13:00:12;1.38;;;1.38;;
11988;SDS011;6054;50.966;7.094;2023-07-31T13:02:40;1.27;;;1.27;;
11988;SDS011;6054;50.966;7.094;2023-07-31T13:05:07;1.17;;;1.08;;
11988;SDS011;6054;50.966;7.094;2023-07-31T13:07:34;1.95;;;1.23;;
11988;SDS011;6054;50.966;7.094;2023-07-31T13:10:00;1.60;;;1.50;;
11988;SDS011;6054;50.966;7.094;2023-07-31T13:12:27;1.45;;;1.35;;
11988;SDS011;6054;50.966;7.094;2023-07-31T13:14:55;1.60;;;1.42;;
11988;SDS011;6054;50.966;7.094;2023-07-31T13:17:22;2.05;;;1.65;;
11988;SDS011;6054;50.966;7.094;2023-07-31T13:19:49;2.00;;;1.45;;
11988;SDS011;6054;50.966;7.094;2023-07-31T13:22:15;3.15;;;1.90;;
11988;SDS011;6054;50.966;7.094;2023-07-31T13:24:42;1.90;;;1.70;;
11988;SDS011;6054;50.966;7.094;2023-07-31T13:27:09;2.08;;;1.95;;
11988;SDS011;6054;50.966;7.094;2023-07-31T13:29:36;1.92;;;1.80;;
11988;SDS011;6054;50.966;7.094;2023-07-31T13:32:04;2.22;;;2.00;;
11988;SDS011;6054;50.966;7.094;2023-07-31T13:34:31;1.90;;;1.80;;
11988;SDS011;6054;50.966;7.094;2023-07-31T13:36:58;2.08;;;1.92;;
11988;SDS011;6054;50.966;7.094;2023-07-31T13:39:25;3.85;;;2.33;;
11988;SDS011;6054;50.966;7.094;2023-07-31T13:41:51;4.30;;;2.22;;
11988;SDS011;6054;50.966;7.094;2023-07-31T13:44:18;2.80;;;2.40;;
11988;SDS011;6054;50.966;7.094;2023-07-31T13:46:45;2.45;;;1.98;;
11988;SDS011;6054;50.966;7.094;2023-07-31T13:49:14;3.63;;;2.10;;
11988;SDS011;6054;50.966;7.094;2023-07-31T13:51:40;2.63;;;2.42;;
11988;SDS011;6054;50.966;7.094;2023-07-31T13:54:07;2.33;;;2.13;;
11988;SDS011;6054;50.966;7.094;2023-07-31T13:56:36;2.95;;;2.30;;
11988;SDS011;6054;50.966;7.094;2023-07-31T13:59:03;2.40;;;2.20;;
11988;SDS011;6054;50.966;7.094;2023-07-31T14:01:30;3.17;;;2.70;;
11988;SDS011;6054;50.966;7.094;2023-07-31T14:03:57;3.35;;;2.55;;
11988;SDS011;6054;50.966;7.094;2023-07-31T14:06:25;2.92;;;2.65;;
11988;SDS011;6054;50.966;7.094;2023-07-31T14:08:52;3.55;;;2.30;;
11988;SDS011;6054;50.966;7.094;2023-07-31T14:11:20;2.45;;;2.25;;
11988;SDS011;6054;50.966;7.094;2023-07-31T14:13:47;2.53;;;2.28;;
11988;SDS011;6054;50.966;7.094;2023-07-31T14:16:14;1.92;;;1.83;;
11988;SDS011;6054;50.966;7.094;2023-07-31T14:18:41;2.85;;;2.45;;
11988;SDS011;6054;50.966;7.094;2023-07-31T14:21:08;2.50;;;2.30;;
11988;SDS011;6054;50.966;7.094;2023-07-31T14:23:36;2.67;;;2.00;;
11988;SDS011;6054;50.966;7.094;2023-07-31T14:26:03;4.38;;;2.20;;
11988;SDS011;6054;50.966;7.094;2023-07-31T14:28:29;3.58;;;2.00;;
11988;SDS011;6054;50.966;7.094;2023-07-31T14:30:56;3.95;;;2.00;;
11988;SDS011;6054;50.966;7.094;2023-07-31T14:33:23;2.63;;;2.00;;
11988;SDS011;6054;50.966;7.094;2023-07-31T14:35:51;2.25;;;2.05;;
11988;SDS011;6054;50.966;7.094;2023-07-31T14:38:18;4.07;;;2.00;;
11988;SDS011;6054;50.966;7.094;2023-07-31T14:40:46;2.10;;;1.90;;
11988;SDS011;6054;50.966;7.094;2023-07-31T14:43:13;2.88;;;2.20;;
11988;SDS011;6054;50.966;7.094;2023-07-31T14:45:40;2.55;;;2.35;;
11988;SDS011;6054;50.966;7.094;2023-07-31T14:48:06;2.00;;;1.80;;
11988;SDS011;6054;50.966;7.094;2023-07-31T14:50:33;2.30;;;2.17;;
11988;SDS011;6054;50.966;7.094;2023-07-31T14:53:00;2.78;;;2.58;;
11988;SDS011;6054;50.966;7.094;2023-07-31T14:55:27;3.10;;;2.63;;
11988;SDS011;6054;50.966;7.094;2023-07-31T14:57:55;2.28;;;2.08;;
11988;SDS011;6054;50.966;7.094;2023-07-31T15:00:22;3.10;;;2.40;;
11988;SDS011;6054;50.966;7.094;2023-07-31T15:02:49;2.63;;;2.33;;
11988;SDS011;6054;50.966;7.094;2023-07-31T15:05:16;2.40;;;2.20;;
11988;SDS011;6054;50.966;7.094;2023-07-31T15:07:42;2.75;;;2.40;;
11988;SDS011;6054;50.966;7.094;2023-07-31T15:10:09;3.47;;;2.40;;
11988;SDS011;6054;50.966;7.094;2023-07-31T15:12:36;5.35;;;2.70;;
11988;SDS011;6054;50.966;7.094;2023-07-31T15:15:05;3.15;;;2.85;;
11988;SDS011;6054;50.966;7.094;2023-07-31T15:17:33;2.47;;;2.28;;
11988;SDS011;6054;50.966;7.094;2023-07-31T15:19:59;2.75;;;2.47;;
11988;SDS011;6054;50.966;7.094;2023-07-31T15:22:26;2.92;;;2.60;;
11988;SDS011;6054;50.966;7.094;2023-07-31T15:24:53;3.28;;;2.63;;
11988;SDS011;6054;50.966;7.094;2023-07-31T15:27:20;2.35;;;2.25;;
11988;SDS011;6054;50.966;7.094;2023-07-31T15:29:46;2.75;;;2.55;;
11988;SDS011;6054;50.966;7.094;2023-07-31T15:32:17;2.95;;;2.60;;